Terminal Aerodrome Forecast
Issued by NWS Twin Cities, MN

Home | Current Version | Previous Version | Graphics & Text | Print | Product List | Glossary On
Versions: 1 2 3 4 5 6 7 8 9 10 11 12 13 14 15 16 17 18
000
FTUS43 KMPX 301300 AAB
TAFEAU
TAF AMD
KEAU 301329Z 3013/3112 VRB04KT P6SM SCT002
      TEMPO 3013/3015 1SM BR OVC002
     FM301500 32007KT P6SM SCT050
     FM301800 31009KT P6SM VCSH BKN050
     FM310100 30003KT P6SM SKC=

USA.gov is the U.S. government's official web portal to all federal, state and local government web resources and services.